Time;durP1;ratioP1;P1;durP2;ratioP2;P2;SDS_P1;SDS_P2;PMS_P1;PMS_P2;Temp;Humidity;BMP_temperature;BMP_pressure;BME280_temperature;BME280_humidity;BME280_pressure;Samples;Min_cycle;Max_cycle;Signal;HPM_P1;HPM_P2
2023/07/18 00:08:43;;;;;;;10.27;3.38;;;;;;;;;;10480273;28;20067;-82
2023/07/18 00:13:48;;;;;;;9.07;3.20;;;;;;;;;;10483121;28;20052;-81
2023/07/18 00:18:56;;;;;;;6.97;3.20;;;;;;;;;;10478959;28;20156;-82
2023/07/18 00:30:19;;;;;;;10.25;2.90;;;;;;;;;;10468026;28;20702;-83
2023/07/18 00:35:30;;;;;;;7.68;2.80;;;;;;;;;;10419462;28;20926;-82
2023/07/18 00:40:40;;;;;;;8.00;3.35;;;;;;;;;;10390204;28;20060;-83
2023/07/18 00:45:54;;;;;;;7.55;2.92;;;;;;;;;;10390341;28;20042;-83
2023/07/18 00:51:13;;;;;;;9.55;3.53;;;;;;;;;;10405330;28;20042;-85
2023/07/18 00:56:21;;;;;;;8.23;3.13;;;;;;;;;;10396127;28;20049;-82
2023/07/18 01:01:27;;;;;;;7.13;3.28;;;;;;;;;;10377572;28;20502;-82
2023/07/18 01:06:36;;;;;;;7.47;2.90;;;;;;;;;;10372867;28;20144;-82
2023/07/18 01:11:46;;;;;;;5.93;2.45;;;;;;;;;;10385706;28;20052;-82
2023/07/18 01:16:51;;;;;;;7.55;2.97;;;;;;;;;;10389282;28;20061;-83
2023/07/18 01:22:04;;;;;;;6.72;2.75;;;;;;;;;;10389551;28;20453;-82
2023/07/18 01:27:10;;;;;;;8.20;2.90;;;;;;;;;;10398400;28;20109;-84
2023/07/18 01:32:20;;;;;;;6.72;2.72;;;;;;;;;;10395382;28;20049;-83
2023/07/18 01:37:46;;;;;;;8.25;3.00;;;;;;;;;;10361815;28;20060;-83
2023/07/18 01:42:51;;;;;;;6.10;2.70;;;;;;;;;;10401245;28;20038;-83
2023/07/18 01:48:06;;;;;;;7.45;3.00;;;;;;;;;;10393353;28;20117;-84
2023/07/18 01:53:16;;;;;;;5.78;2.60;;;;;;;;;;10384497;28;20045;-84
2023/07/18 01:58:30;;;;;;;9.38;3.17;;;;;;;;;;10383512;28;20514;-82
2023/07/18 02:03:38;;;;;;;8.98;2.83;;;;;;;;;;10372988;28;20051;-83
2023/07/18 02:08:51;;;;;;;6.68;3.28;;;;;;;;;;10395633;28;20125;-83
2023/07/18 02:14:07;;;;;;;5.25;2.75;;;;;;;;;;10386226;28;20045;-84
2023/07/18 02:19:11;;;;;;;5.20;2.60;;;;;;;;;;10398110;28;20042;-85
2023/07/18 02:24:18;;;;;;;5.03;2.65;;;;;;;;;;10370010;28;20101;-84
2023/07/18 02:29:29;;;;;;;5.53;2.67;;;;;;;;;;10393429;28;20437;-85
2023/07/18 02:34:38;;;;;;;6.03;2.90;;;;;;;;;;10386305;28;20041;-85
2023/07/18 02:39:49;;;;;;;5.95;2.67;;;;;;;;;;10385193;28;20100;-85
2023/07/18 02:44:56;;;;;;;8.05;3.00;;;;;;;;;;10393824;28;20092;-84
2023/07/18 02:50:15;;;;;;;6.85;2.75;;;;;;;;;;10388480;28;20054;-85
2023/07/18 02:55:39;;;;;;;6.30;2.92;;;;;;;;;;10396885;28;20077;-84
2023/07/18 03:00:47;;;;;;;5.80;2.40;;;;;;;;;;10396190;28;20136;-83
2023/07/18 03:05:53;;;;;;;7.93;3.20;;;;;;;;;;10378323;28;20053;-84
2023/07/18 03:10:59;;;;;;;5.63;2.97;;;;;;;;;;10404790;28;20117;-83
2023/07/18 03:21:37;;;;;;;6.32;3.35;;;;;;;;;;10391483;28;20129;-83
2023/07/18 03:26:57;;;;;;;5.80;2.67;;;;;;;;;;10400448;28;20380;-84
2023/07/18 03:32:07;;;;;;;9.82;3.25;;;;;;;;;;10396257;28;20052;-85
2023/07/18 03:37:19;;;;;;;6.32;3.13;;;;;;;;;;10380678;28;20534;-85
2023/07/18 03:42:27;;;;;;;5.47;2.80;;;;;;;;;;10396648;28;20541;-85
2023/07/18 03:47:39;;;;;;;6.63;2.83;;;;;;;;;;10389012;28;20422;-85
2023/07/18 03:58:16;;;;;;;6.40;2.88;;;;;;;;;;10392273;28;20468;-82
2023/07/18 04:03:24;;;;;;;8.18;2.70;;;;;;;;;;10377886;28;20049;-82
2023/07/18 04:08:28;;;;;;;5.63;2.70;;;;;;;;;;10389241;28;20128;-83
2023/07/18 04:13:40;;;;;;;5.78;2.90;;;;;;;;;;10383239;28;20091;-83
2023/07/18 04:18:50;;;;;;;6.20;2.75;;;;;;;;;;10396374;28;20414;-85
2023/07/18 04:23:59;;;;;;;7.63;2.92;;;;;;;;;;10390009;28;20042;-84
2023/07/18 04:29:10;;;;;;;7.35;3.00;;;;;;;;;;10373487;28;20177;-84
2023/07/18 04:34:15;;;;;;;8.32;3.17;;;;;;;;;;10371364;28;20503;-85
2023/07/18 04:39:21;;;;;;;5.03;2.72;;;;;;;;;;10370272;28;20053;-86
2023/07/18 04:44:33;;;;;;;8.13;2.58;;;;;;;;;;10367729;28;20030;-83
2023/07/18 04:49:42;;;;;;;7.18;2.78;;;;;;;;;;10382372;28;20059;-84
2023/07/18 04:54:47;;;;;;;9.75;2.97;;;;;;;;;;10391821;28;20117;-84
2023/07/18 04:59:56;;;;;;;7.68;2.78;;;;;;;;;;10372724;28;20526;-83
2023/07/18 05:05:09;;;;;;;7.95;2.88;;;;;;;;;;10392043;28;20071;-83
2023/07/18 05:10:14;;;;;;;5.53;2.90;;;;;;;;;;10404543;28;20426;-83
2023/07/18 05:15:28;;;;;;;7.03;2.97;;;;;;;;;;10375868;28;20099;-83
2023/07/18 05:20:35;;;;;;;6.80;2.85;;;;;;;;;;10365998;28;20454;-83
2023/07/18 05:25:56;;;;;;;7.00;3.22;;;;;;;;;;10386888;28;20216;-83
2023/07/18 05:31:09;;;;;;;6.90;2.65;;;;;;;;;;10388325;28;20050;-84
2023/07/18 05:36:39;;;;;;;5.50;2.58;;;;;;;;;;10390182;28;20124;-84
2023/07/18 05:41:52;;;;;;;6.88;2.72;;;;;;;;;;10401546;28;20095;-86
2023/07/18 05:46:59;;;;;;;7.45;2.90;;;;;;;;;;10390764;28;20544;-82
2023/07/18 05:52:11;;;;;;;6.35;2.97;;;;;;;;;;10393995;28;20042;-83
2023/07/18 05:57:15;;;;;;;5.45;2.50;;;;;;;;;;10391526;28;20053;-83
2023/07/18 06:02:36;;;;;;;7.03;2.75;;;;;;;;;;10395816;28;20041;-85
2023/07/18 06:07:55;;;;;;;5.90;2.45;;;;;;;;;;10392619;28;20148;-84
2023/07/18 06:13:03;;;;;;;6.50;3.08;;;;;;;;;;10357218;28;20045;-81
2023/07/18 06:18:16;;;;;;;6.88;2.55;;;;;;;;;;10386278;28;20691;-83
2023/07/18 06:23:30;;;;;;;6.10;2.80;;;;;;;;;;10387757;28;20121;-83
2023/07/18 06:28:34;;;;;;;7.93;2.60;;;;;;;;;;10392191;28;20072;-83
2023/07/18 06:33:43;;;;;;;5.57;2.58;;;;;;;;;;10386524;28;21017;-85
2023/07/18 06:38:49;;;;;;;5.32;2.38;;;;;;;;;;10406488;28;20131;-86
2023/07/18 06:44:05;;;;;;;4.95;2.35;;;;;;;;;;10402342;28;20116;-84
2023/07/18 06:49:15;;;;;;;3.10;1.90;;;;;;;;;;10413081;28;20575;-84
2023/07/18 06:54:25;;;;;;;4.68;2.42;;;;;;;;;;10379972;28;20478;-83
2023/07/18 07:05:17;;;;;;;7.47;2.60;;;;;;;;;;10394249;28;20490;-83
2023/07/18 07:10:34;;;;;;;6.75;1.83;;;;;;;;;;10379448;28;20077;-85
2023/07/18 07:15:42;;;;;;;4.68;2.33;;;;;;;;;;10381401;28;20191;-86
2023/07/18 07:20:51;;;;;;;4.05;2.10;;;;;;;;;;10401995;28;20148;-81
2023/07/18 07:25:58;;;;;;;5.75;1.83;;;;;;;;;;10386767;28;20971;-83
2023/07/18 07:31:06;;;;;;;5.93;2.38;;;;;;;;;;10414738;28;20096;-82
2023/07/18 07:41:35;;;;;;;3.30;1.90;;;;;;;;;;10396720;28;20073;-81
2023/07/18 07:46:40;;;;;;;5.05;2.15;;;;;;;;;;10396790;28;20065;-82
2023/07/18 07:51:47;;;;;;;3.70;2.10;;;;;;;;;;10397762;28;20144;-82
2023/07/18 08:02:19;;;;;;;5.20;2.70;;;;;;;;;;10397381;28;20064;-81
2023/07/18 08:07:29;;;;;;;4.82;2.47;;;;;;;;;;10374227;28;20048;-81
2023/07/18 08:12:45;;;;;;;8.60;2.58;;;;;;;;;;10393159;28;20049;-81
2023/07/18 08:17:57;;;;;;;5.00;2.70;;;;;;;;;;10402162;28;20080;-82
2023/07/18 08:23:00;;;;;;;5.55;2.70;;;;;;;;;;10391359;28;20045;-82
2023/07/18 08:28:19;;;;;;;6.03;3.00;;;;;;;;;;10392682;28;20728;-83
2023/07/18 08:33:46;;;;;;;6.43;3.63;;;;;;;;;;10388752;28;20029;-81
2023/07/18 08:38:52;;;;;;;6.30;3.00;;;;;;;;;;10390264;28;20046;-81
2023/07/18 08:44:22;;;;;;;5.32;3.00;;;;;;;;;;10370865;28;20108;-81
2023/07/18 08:49:31;;;;;;;5.80;3.33;;;;;;;;;;10394657;28;20566;-80
2023/07/18 08:54:51;;;;;;;6.65;3.42;;;;;;;;;;10383727;28;20050;-81
2023/07/18 08:59:59;;;;;;;5.40;2.90;;;;;;;;;;10389193;28;20062;-82
2023/07/18 09:05:10;;;;;;;5.78;3.33;;;;;;;;;;10388641;28;20033;-83
2023/07/18 09:10:21;;;;;;;5.75;3.30;;;;;;;;;;10395637;28;20698;-82
2023/07/18 09:15:43;;;;;;;4.97;3.13;;;;;;;;;;10376320;28;20425;-82
2023/07/18 09:20:51;;;;;;;4.85;3.63;;;;;;;;;;10391330;28;20064;-82
2023/07/18 09:26:21;;;;;;;5.18;3.60;;;;;;;;;;10408094;28;20216;-82
2023/07/18 09:31:29;;;;;;;6.45;3.55;;;;;;;;;;10372247;28;20060;-82
2023/07/18 09:36:42;;;;;;;5.80;3.30;;;;;;;;;;10391305;28;20109;-81
2023/07/18 09:42:00;;;;;;;7.22;3.97;;;;;;;;;;10371928;28;20593;-81
2023/07/18 09:47:16;;;;;;;5.22;3.17;;;;;;;;;;10382567;28;20603;-81
2023/07/18 09:52:26;;;;;;;5.18;3.40;;;;;;;;;;10390139;28;20407;-81
2023/07/18 09:57:31;;;;;;;6.15;3.30;;;;;;;;;;10382353;28;20041;-76
2023/07/18 10:02:39;;;;;;;4.90;3.85;;;;;;;;;;10382035;28;20562;-76
2023/07/18 10:07:48;;;;;;;6.70;4.47;;;;;;;;;;10386173;28;20128;-78
2023/07/18 10:13:02;;;;;;;6.35;4.10;;;;;;;;;;10381983;28;20111;-76
2023/07/18 10:18:24;;;;;;;6.45;4.40;;;;;;;;;;10388378;28;20637;-78
2023/07/18 10:23:42;;;;;;;6.13;4.20;;;;;;;;;;10364591;28;20111;-76
2023/07/18 10:28:50;;;;;;;5.57;4.20;;;;;;;;;;10377755;28;20064;-76
2023/07/18 10:34:11;;;;;;;6.72;4.38;;;;;;;;;;10389299;28;20718;-78
2023/07/18 10:39:14;;;;;;;6.93;4.25;;;;;;;;;;10364963;28;20053;-77
2023/07/18 10:44:19;;;;;;;7.43;4.72;;;;;;;;;;10392128;28;20057;-76
2023/07/18 10:49:28;;;;;;;13.13;4.97;;;;;;;;;;10363132;28;20049;-76
2023/07/18 10:54:46;;;;;;;4.97;4.00;;;;;;;;;;10380622;28;20551;-76
2023/07/18 10:59:52;;;;;;;7.15;4.68;;;;;;;;;;10383948;28;20127;-76
2023/07/18 11:05:06;;;;;;;7.38;4.60;;;;;;;;;;10371189;28;20042;-77
2023/07/18 11:10:13;;;;;;;10.38;4.80;;;;;;;;;;10383087;28;20388;-76
2023/07/18 11:15:21;;;;;;;6.20;4.00;;;;;;;;;;10401198;28;20081;-77
2023/07/18 11:20:31;;;;;;;5.60;4.40;;;;;;;;;;10393363;28;20037;-76
2023/07/18 11:25:35;;;;;;;7.22;4.68;;;;;;;;;;10394845;28;20365;-75
2023/07/18 11:30:38;;;;;;;5.95;4.22;;;;;;;;;;10389957;28;20136;-76
2023/07/18 11:35:51;;;;;;;6.90;3.75;;;;;;;;;;10374785;28;20045;-75
2023/07/18 11:40:58;;;;;;;10.02;4.20;;;;;;;;;;10392411;28;20050;-75
2023/07/18 11:46:03;;;;;;;8.40;4.25;;;;;;;;;;10395527;28;20494;-77
2023/07/18 11:51:13;;;;;;;6.32;3.90;;;;;;;;;;10395630;28;20068;-76
2023/07/18 11:56:17;;;;;;;7.60;4.22;;;;;;;;;;10395019;28;20049;-75
2023/07/18 12:01:21;;;;;;;8.93;4.00;;;;;;;;;;10369995;28;20178;-75
2023/07/18 12:06:27;;;;;;;10.15;4.40;;;;;;;;;;10384615;28;20444;-76
2023/07/18 12:11:31;;;;;;;9.23;3.80;;;;;;;;;;10380749;28;20207;-76
2023/07/18 12:16:35;;;;;;;7.22;4.05;;;;;;;;;;10379776;28;20596;-76
2023/07/18 12:21:48;;;;;;;6.93;3.40;;;;;;;;;;10379287;28;20045;-76
2023/07/18 12:26:53;;;;;;;7.95;3.75;;;;;;;;;;10373091;28;20371;-76
2023/07/18 12:32:01;;;;;;;6.68;3.85;;;;;;;;;;10383393;28;20050;-76
2023/07/18 12:37:09;;;;;;;6.07;3.72;;;;;;;;;;10377575;28;20129;-76
2023/07/18 12:42:15;;;;;;;7.75;3.42;;;;;;;;;;10382627;28;20049;-76
2023/07/18 12:47:20;;;;;;;8.68;3.85;;;;;;;;;;10385201;28;20702;-76
2023/07/18 12:52:29;;;;;;;9.18;3.67;;;;;;;;;;10366377;28;20804;-76
2023/07/18 12:57:34;;;;;;;8.82;3.40;;;;;;;;;;10358355;28;20050;-76
2023/07/18 13:02:42;;;;;;;6.75;3.67;;;;;;;;;;10383262;28;20507;-75
2023/07/18 13:07:50;;;;;;;8.63;3.50;;;;;;;;;;10359703;28;20045;-75
2023/07/18 13:12:55;;;;;;;10.00;4.25;;;;;;;;;;10360321;28;20037;-76
2023/07/18 13:18:00;;;;;;;10.52;4.38;;;;;;;;;;10376983;28;20399;-76
2023/07/18 13:23:11;;;;;;;8.82;3.70;;;;;;;;;;10387660;28;20076;-75
2023/07/18 13:28:18;;;;;;;7.68;3.58;;;;;;;;;;10384677;28;20053;-76
2023/07/18 13:33:25;;;;;;;9.05;3.22;;;;;;;;;;10383665;28;20053;-77
2023/07/18 13:38:41;;;;;;;6.38;2.95;;;;;;;;;;10370441;28;20103;-76
2023/07/18 13:43:47;;;;;;;5.40;1.70;;;;;;;;;;10379880;28;20731;-75
2023/07/18 13:48:55;;;;;;;13.13;4.22;;;;;;;;;;10385630;28;20061;-76
2023/07/18 13:54:04;;;;;;;5.60;2.78;;;;;;;;;;10389118;28;20045;-76
2023/07/18 13:59:08;;;;;;;6.82;3.33;;;;;;;;;;10375490;28;20132;-76
2023/07/18 14:04:14;;;;;;;8.48;3.67;;;;;;;;;;10363889;28;20057;-74
2023/07/18 14:09:24;;;;;;;7.20;3.58;;;;;;;;;;10379931;28;20073;-76
2023/07/18 14:14:52;;;;;;;7.78;3.65;;;;;;;;;;10370804;28;20525;-75
2023/07/18 14:19:56;;;;;;;6.75;2.63;;;;;;;;;;10372122;28;20045;-76
2023/07/18 14:25:05;;;;;;;6.32;3.38;;;;;;;;;;10387254;28;20111;-76
2023/07/18 14:30:12;;;;;;;5.00;2.70;;;;;;;;;;10391654;28;20069;-76
2023/07/18 14:35:19;;;;;;;9.05;3.67;;;;;;;;;;10373794;28;20657;-75
2023/07/18 14:40:35;;;;;;;5.63;2.78;;;;;;;;;;10380310;28;20580;-76
2023/07/18 14:45:49;;;;;;;4.68;2.47;;;;;;;;;;10379797;28;20045;-76
2023/07/18 14:50:59;;;;;;;4.90;2.78;;;;;;;;;;10384201;28;20498;-77
2023/07/18 14:56:06;;;;;;;;;;;;;;;;;;10390060;28;20042;-76
2023/07/18 15:01:15;;;;;;;5.18;2.85;;;;;;;;;;10385261;28;19929;-76
2023/07/18 15:11:43;;;;;;;7.45;3.38;;;;;;;;;;10387240;28;20054;-76
2023/07/18 15:17:01;;;;;;;11.32;3.42;;;;;;;;;;10392930;28;20121;-76
2023/07/18 15:22:11;;;;;;;9.65;4.30;;;;;;;;;;10395935;28;20049;-76
2023/07/18 15:27:27;;;;;;;5.47;3.38;;;;;;;;;;10370328;28;20057;-74
2023/07/18 15:32:48;;;;;;;6.45;3.58;;;;;;;;;;10373069;28;20138;-78
2023/07/18 15:38:05;;;;;;;7.88;3.60;;;;;;;;;;10390049;28;20064;-83
2023/07/18 15:43:15;;;;;;;8.27;3.42;;;;;;;;;;10392988;28;20137;-84
2023/07/18 15:48:27;;;;;;;8.02;3.72;;;;;;;;;;10390276;28;20041;-86
2023/07/18 15:59:03;;;;;;;6.57;3.30;;;;;;;;;;10391598;28;20081;-84
2023/07/18 16:04:09;;;;;;;6.80;3.00;;;;;;;;;;10404869;28;20526;-85
2023/07/18 16:09:18;;;;;;;7.65;4.15;;;;;;;;;;10395711;28;20052;-83
2023/07/18 16:14:30;;;;;;;8.52;4.00;;;;;;;;;;10399964;28;20045;-84
2023/07/18 16:25:12;;;;;;;6.80;3.70;;;;;;;;;;10399762;28;20049;-85
2023/07/18 16:35:47;;;;;;;7.63;3.50;;;;;;;;;;10395643;28;20049;-85
2023/07/18 16:40:57;;;;;;;8.43;3.92;;;;;;;;;;10363239;28;20037;-77
2023/07/18 16:46:16;;;;;;;8.70;3.88;;;;;;;;;;10392467;28;20057;-77
2023/07/18 16:51:48;;;;;;;7.50;3.55;;;;;;;;;;10391135;28;20140;-76
2023/07/18 16:57:03;;;;;;;8.10;3.35;;;;;;;;;;10387548;28;20064;-77
2023/07/18 17:02:12;;;;;;;11.80;3.78;;;;;;;;;;10394154;28;20527;-77
2023/07/18 17:07:17;;;;;;;8.85;4.47;;;;;;;;;;10389736;28;20116;-75
2023/07/18 17:12:33;;;;;;;;;;;;;;;;;;10394149;28;20049;-76
2023/07/18 17:17:44;;;;;;;11.55;4.15;;;;;;;;;;10363015;28;19921;-77
2023/07/18 17:23:06;;;;;;;10.32;4.18;;;;;;;;;;10388128;28;20044;-77
2023/07/18 17:28:21;;;;;;;9.57;3.97;;;;;;;;;;10393557;28;20562;-76
2023/07/18 17:33:43;;;;;;;9.15;3.65;;;;;;;;;;10384945;28;20128;-77
2023/07/18 17:38:55;;;;;;;8.20;3.35;;;;;;;;;;10397960;28;20045;-76
2023/07/18 17:44:03;;;;;;;12.25;4.28;;;;;;;;;;10391985;28;20041;-76
2023/07/18 17:49:17;;;;;;;7.38;3.67;;;;;;;;;;10386859;28;20045;-76
2023/07/18 17:54:27;;;;;;;7.63;3.65;;;;;;;;;;10396816;28;20049;-76
2023/07/18 17:59:31;;;;;;;8.55;3.47;;;;;;;;;;10370687;28;20132;-76
2023/07/18 18:04:55;;;;;;;9.30;3.60;;;;;;;;;;10395396;28;20060;-76
2023/07/18 18:10:07;;;;;;;10.57;3.70;;;;;;;;;;10366662;28;20358;-76
2023/07/18 18:15:22;;;;;;;7.18;3.75;;;;;;;;;;10382732;28;20045;-84
2023/07/18 18:20:29;;;;;;;;;;;;;;;;;;10418768;28;20065;-85
2023/07/18 18:25:37;;;;;;;8.35;3.40;;;;;;;;;;10403790;28;19921;-82
2023/07/18 18:30:47;;;;;;;9.05;3.42;;;;;;;;;;10409049;28;20476;-83
2023/07/18 18:35:58;;;;;;;8.93;3.50;;;;;;;;;;10387659;28;20420;-85
2023/07/18 18:41:12;;;;;;;8.57;3.78;;;;;;;;;;10388634;28;20124;-84
2023/07/18 18:46:24;;;;;;;6.72;3.28;;;;;;;;;;10399818;28;20501;-84
2023/07/18 18:51:34;;;;;;;9.65;4.38;;;;;;;;;;10393824;28;20121;-86
2023/07/18 18:56:55;;;;;;;8.60;3.55;;;;;;;;;;10397345;28;20130;-83
2023/07/18 19:02:01;;;;;;;11.85;5.00;;;;;;;;;;10371840;28;20044;-83
2023/07/18 19:07:16;;;;;;;9.55;3.90;;;;;;;;;;10379485;28;20053;-87
2023/07/18 19:12:30;;;;;;;8.23;3.70;;;;;;;;;;10390362;28;20097;-87
2023/07/18 19:17:38;;;;;;;8.98;3.63;;;;;;;;;;10400841;28;20042;-88
2023/07/18 19:22:46;;;;;;;12.73;3.70;;;;;;;;;;10385181;28;20052;-87
2023/07/18 19:28:11;;;;;;;7.50;3.58;;;;;;;;;;10391873;28;20132;-87
2023/07/18 19:33:17;;;;;;;9.65;3.80;;;;;;;;;;10387679;28;20081;-86
2023/07/18 19:38:38;;;;;;;10.98;4.63;;;;;;;;;;10406012;28;20111;-84
2023/07/18 19:43:53;;;;;;;12.23;3.75;;;;;;;;;;10406806;28;20515;-78
2023/07/18 19:49:00;;;;;;;;;;;;;;;;;;10385471;28;20044;-77
2023/07/18 19:54:24;;;;;;;13.77;6.93;;;;;;;;;;10399104;28;19929;-77
2023/07/18 19:59:34;;;;;;;11.07;4.72;;;;;;;;;;10389457;28;20115;-77
2023/07/18 20:04:44;;;;;;;8.25;3.80;;;;;;;;;;10393265;28;20104;-77
2023/07/18 20:09:59;;;;;;;9.50;3.80;;;;;;;;;;10392437;28;20041;-77
2023/07/18 20:15:20;;;;;;;14.07;4.28;;;;;;;;;;10389772;28;20411;-84
2023/07/18 20:20:43;;;;;;;11.65;4.45;;;;;;;;;;10394272;28;20412;-83
2023/07/18 20:26:17;;;;;;;11.95;4.07;;;;;;;;;;10603241;27;20136;-80
2023/07/18 20:31:20;;;;;;;9.98;4.25;;;;;;;;;;10590968;27;20096;-76
2023/07/18 20:36:23;;;;;;;9.75;3.80;;;;;;;;;;10572401;27;20131;-76
2023/07/18 20:41:27;;;;;;;;;;;;;;;;;;10597285;27;20040;-75
2023/07/18 20:46:31;;;;;;;9.75;3.45;;;;;;;;;;10587765;27;20179;-77
2023/07/18 20:51:34;;;;;;;11.75;4.10;;;;;;;;;;10589412;27;20376;-77
2023/07/18 20:56:38;;;;;;;7.95;3.53;;;;;;;;;;10587702;27;20502;-74
2023/07/18 21:01:43;;;;;;;10.32;4.15;;;;;;;;;;10593523;27;20039;-77
2023/07/18 21:06:46;;;;;;;10.80;4.10;;;;;;;;;;10594620;27;20064;-75
2023/07/18 21:11:49;;;;;;;11.63;4.82;;;;;;;;;;10587504;27;20034;-76
2023/07/18 21:16:53;;;;;;;8.63;4.13;;;;;;;;;;10583678;27;20419;-76
2023/07/18 21:21:55;;;;;;;9.50;3.88;;;;;;;;;;10593128;27;20054;-75
2023/07/18 21:26:58;;;;;;;;;;;;;;;;;;10589757;27;20092;-78
2023/07/18 21:32:02;;;;;;;9.00;3.97;;;;;;;;;;10592608;27;20316;-76
2023/07/18 21:37:05;;;;;;;11.13;4.50;;;;;;;;;;10563846;28;20036;-75
2023/07/18 21:42:08;;;;;;;9.88;4.53;;;;;;;;;;10561186;27;20435;-74
2023/07/18 21:47:12;;;;;;;8.73;3.53;;;;;;;;;;10569158;27;20131;-75
2023/07/18 21:52:15;;;;;;;8.90;3.60;;;;;;;;;;10559893;27;20092;-76
2023/07/18 21:57:17;;;;;;;10.45;3.72;;;;;;;;;;10562007;27;20055;-76
2023/07/18 22:02:21;;;;;;;10.52;4.15;;;;;;;;;;10558982;28;20052;-75
2023/07/18 22:07:24;;;;;;;9.40;4.15;;;;;;;;;;10559715;28;20097;-76
2023/07/18 22:12:26;;;;;;;11.73;4.60;;;;;;;;;;10559129;27;20056;-76
2023/07/18 22:17:30;;;;;;;9.27;3.85;;;;;;;;;;10559982;28;20059;-75
2023/07/18 22:22:33;;;;;;;7.35;3.53;;;;;;;;;;10561086;28;20078;-76
2023/07/18 22:27:35;;;;;;;13.80;4.32;;;;;;;;;;10564103;28;20043;-76
2023/07/18 22:32:39;;;;;;;13.05;4.20;;;;;;;;;;10564197;27;20028;-75
2023/07/18 22:37:42;;;;;;;12.30;4.20;;;;;;;;;;10565082;27;20039;-75
2023/07/18 22:42:45;;;;;;;10.38;3.83;;;;;;;;;;10558275;27;20032;-75
2023/07/18 22:47:47;;;;;;;;;;;;;;;;;;10563657;28;20168;-75
2023/07/18 22:52:51;;;;;;;6.63;3.50;;;;;;;;;;10563570;28;20006;-75
2023/07/18 22:57:54;;;;;;;8.70;3.60;;;;;;;;;;10559386;28;20446;-75
2023/07/18 23:02:57;;;;;;;10.15;3.97;;;;;;;;;;10566518;28;20040;-75
2023/07/18 23:08:01;;;;;;;8.52;2.95;;;;;;;;;;10559650;28;20058;-75
2023/07/18 23:13:03;;;;;;;8.07;3.63;;;;;;;;;;10563821;27;20031;-75
2023/07/18 23:18:06;;;;;;;9.73;4.00;;;;;;;;;;10564899;27;20032;-74
2023/07/18 23:23:10;;;;;;;8.95;3.58;;;;;;;;;;10558561;28;20513;-75
2023/07/18 23:28:14;;;;;;;8.23;3.80;;;;;;;;;;10555598;27;20502;-75
2023/07/18 23:33:17;;;;;;;8.20;3.47;;;;;;;;;;10558096;28;20127;-75
2023/07/18 23:38:21;;;;;;;10.38;4.18;;;;;;;;;;10557112;28;20227;-74
2023/07/18 23:43:28;;;;;;;7.85;3.47;;;;;;;;;;10553157;28;20046;-75
2023/07/18 23:48:31;;;;;;;7.95;4.07;;;;;;;;;;10560886;28;20127;-75
2023/07/18 23:53:35;;;;;;;7.78;3.90;;;;;;;;;;10562636;28;20062;-75
2023/07/18 23:58:37;;;;;;;8.73;3.67;;;;;;;;;;10561682;27;20603;-75
